Terminal Aerodrome Forecast
Issued by NWS

Home | Current Version | Previous Version | Text Only | Print | Product List | Glossary On
Versions: 1 2 3 4 5 6 7 8 9 10 11 12 13
411
FTUS42 KMHX 232119 AAA
TAFOAJ
TAF AMD
KOAJ 232119Z 2321/2418 15010KT P6SM VCSH SCT020 BKN035
     FM240300 17011G18KT 4SM -SHRA VCTS SCT020CB OVC040
     FM240800 18009KT 4SM -SHRA VCTS SCT007 OVC015CB
     FM241200 21005KT P6SM VCSH BKN025
      AMD LTD TO CLD VIS AND WIND=

USA.gov is the U.S. government's official web portal to all federal, state and local government web resources and services.